createdAt,value
2022-12-09T00:00:54.059Z,19.10
2022-12-09T00:01:33.787Z,19.54
2022-12-09T00:02:14.232Z,19.50
2022-12-09T00:02:54.897Z,20.11
2022-12-09T00:03:42.940Z,20.02
2022-12-09T00:04:36.971Z,19.77
2022-12-09T00:05:30.928Z,19.85
2022-12-09T00:06:34.764Z,20.08
2022-12-09T00:07:29.027Z,19.65
2022-12-09T00:08:22.926Z,19.42
2022-12-09T00:09:04.890Z,19.36
2022-12-09T00:09:45.020Z,19.70
2022-12-09T00:10:25.893Z,19.58
2022-12-09T00:11:06.865Z,19.83
2022-12-09T00:11:47.783Z,20.19
2022-12-09T00:12:28.002Z,20.65
2022-12-09T00:13:07.800Z,20.45
2022-12-09T00:13:48.040Z,21.20
2022-12-09T00:14:29.029Z,21.50
2022-12-09T00:15:09.037Z,21.41
2022-12-09T00:15:50.092Z,21.55
2022-12-09T00:16:31.972Z,22.04
2022-12-09T00:17:12.928Z,22.29
2022-12-09T00:17:52.833Z,22.55
2022-12-09T00:18:33.840Z,22.59
2022-12-09T00:19:13.929Z,22.91
2022-12-09T00:19:54.827Z,22.00
2022-12-09T00:20:34.861Z,21.60
2022-12-09T00:21:39.000Z,20.98
2022-12-09T00:22:19.022Z,20.83
2022-12-09T00:22:59.774Z,21.40
2022-12-09T00:23:39.833Z,20.73
2022-12-09T00:24:21.857Z,20.39
2022-12-09T00:25:08.882Z,20.26
2022-12-09T00:26:02.806Z,20.13
2022-12-09T00:26:56.767Z,20.04
2022-12-09T00:27:50.940Z,19.79
2022-12-09T00:28:44.976Z,19.56
2022-12-09T00:29:38.777Z,19.79
2022-12-09T00:30:26.787Z,19.58
2022-12-09T00:31:01.032Z,19.31
2022-12-09T00:31:48.170Z,19.15
2022-12-09T00:32:23.082Z,18.61
2022-12-09T00:33:09.753Z,18.99
2022-12-09T00:33:44.531Z,18.89
2022-12-09T00:34:31.996Z,19.14
2022-12-09T00:35:12.813Z,19.21
2022-12-09T00:35:52.761Z,18.50
2022-12-09T00:36:34.828Z,18.70
2022-12-09T00:37:15.760Z,18.48
2022-12-09T00:37:57.108Z,19.00
2022-12-09T00:38:37.889Z,19.38
2022-12-09T00:39:17.914Z,18.84
2022-12-09T00:39:57.787Z,19.10
2022-12-09T00:40:38.935Z,19.91
2022-12-09T00:41:20.782Z,21.19
2022-12-09T00:42:02.068Z,22.39
2022-12-09T00:42:42.716Z,23.67
2022-12-09T00:43:22.824Z,23.40
2022-12-09T00:44:04.759Z,24.23
2022-12-09T00:44:44.783Z,25.34
2022-12-09T00:45:24.754Z,26.34
2022-12-09T00:46:05.318Z,26.39
2022-12-09T00:46:46.028Z,25.29
2022-12-09T00:47:25.984Z,23.80
2022-12-09T00:48:06.840Z,21.81
2022-12-09T00:48:48.791Z,21.76
2022-12-09T00:49:28.730Z,22.36
2022-12-09T00:50:11.232Z,21.73
2022-12-09T00:50:52.864Z,21.71
2022-12-09T00:51:33.020Z,21.99
2022-12-09T00:52:13.764Z,21.59
2022-12-09T00:52:53.968Z,22.83
2022-12-09T00:53:34.727Z,24.94
2022-12-09T00:54:16.094Z,26.27
2022-12-09T00:54:56.837Z,24.86
2022-12-09T00:55:37.256Z,23.00
2022-12-09T00:56:18.777Z,21.71
2022-12-09T00:56:59.845Z,20.98
2022-12-09T00:57:39.941Z,20.81
2022-12-09T00:58:20.933Z,20.77
2022-12-09T00:59:00.791Z,21.63
2022-12-09T00:59:40.905Z,21.42
2022-12-09T01:00:21.934Z,21.63
2022-12-09T01:01:01.862Z,21.21
2022-12-09T01:01:42.785Z,20.69
2022-12-09T01:02:22.854Z,20.54
2022-12-09T01:03:02.972Z,21.04
2022-12-09T01:03:43.021Z,21.04
2022-12-09T01:04:24.022Z,20.96
2022-12-09T01:05:04.035Z,20.67
2022-12-09T01:05:44.902Z,21.15
2022-12-09T01:06:30.008Z,20.36
2022-12-09T01:07:10.892Z,19.39
2022-12-09T01:07:51.066Z,18.84
2022-12-09T01:08:32.039Z,18.73
2022-12-09T01:09:12.343Z,19.25
2022-12-09T01:09:52.731Z,19.45
2022-12-09T01:10:33.217Z,19.80
2022-12-09T01:11:19.848Z,19.92
2022-12-09T01:12:00.345Z,19.31
2022-12-09T01:12:40.754Z,19.31
2022-12-09T01:13:22.862Z,19.66
2022-12-09T01:14:07.883Z,19.19
2022-12-09T01:14:48.102Z,18.54
2022-12-09T01:15:28.858Z,18.94
2022-12-09T01:16:10.461Z,18.84
2022-12-09T01:16:50.874Z,18.38
2022-12-09T01:17:31.806Z,18.48
2022-12-09T01:18:13.765Z,19.09
2022-12-09T01:18:55.306Z,19.49
2022-12-09T01:19:35.993Z,19.94
2022-12-09T01:20:17.264Z,19.49
2022-12-09T01:21:05.977Z,19.31
2022-12-09T01:21:45.808Z,19.44
2022-12-09T01:22:25.860Z,18.94
2022-12-09T01:23:07.055Z,18.80
2022-12-09T01:23:47.997Z,19.11
2022-12-09T01:24:28.756Z,19.19
2022-12-09T01:25:09.875Z,18.45
2022-12-09T01:25:51.071Z,18.91
2022-12-09T01:26:32.803Z,18.56
2022-12-09T01:27:13.163Z,18.42
2022-12-09T01:27:53.756Z,18.05
2022-12-09T01:28:34.133Z,18.08
2022-12-09T01:29:16.033Z,18.56
2022-12-09T01:29:55.744Z,19.10
2022-12-09T01:30:36.718Z,19.14
2022-12-09T01:31:21.926Z,19.23
2022-12-09T01:32:02.829Z,19.38
2022-12-09T01:32:43.628Z,18.85
2022-12-09T01:33:23.770Z,18.63
2022-12-09T01:34:03.945Z,18.14
2022-12-09T01:34:43.662Z,18.84
2022-12-09T01:35:24.921Z,19.05
2022-12-09T01:36:04.888Z,18.67
2022-12-09T01:36:44.782Z,18.67
2022-12-09T01:37:25.987Z,19.11
2022-12-09T01:38:05.760Z,19.23
2022-12-09T01:38:46.733Z,18.79
2022-12-09T01:39:26.925Z,18.36
2022-12-09T01:40:08.849Z,18.63
2022-12-09T01:40:53.756Z,18.59
2022-12-09T01:41:34.685Z,19.10
2022-12-09T01:42:26.884Z,18.96
2022-12-09T01:43:08.006Z,18.94
2022-12-09T01:43:48.722Z,18.04
2022-12-09T01:44:33.661Z,17.77
2022-12-09T01:45:30.776Z,18.41
2022-12-09T01:46:10.779Z,18.77
2022-12-09T01:46:58.977Z,18.45
2022-12-09T01:47:33.534Z,18.63
2022-12-09T01:48:29.842Z,18.70
2022-12-09T01:49:04.409Z,18.56
2022-12-09T01:49:54.925Z,18.41
2022-12-09T01:50:29.397Z,18.06
2022-12-09T01:51:30.188Z,18.56
2022-12-09T01:52:28.705Z,18.29
2022-12-09T01:53:09.903Z,18.36
2022-12-09T01:53:52.653Z,19.04
2022-12-09T01:54:34.019Z,18.88
2022-12-09T01:55:15.691Z,18.56
2022-12-09T01:55:56.980Z,18.50
2022-12-09T01:56:40.888Z,18.52
2022-12-09T01:57:21.774Z,18.67
2022-12-09T01:58:01.681Z,18.76
2022-12-09T01:58:41.712Z,18.73
2022-12-09T01:59:22.898Z,18.16
2022-12-09T02:00:04.105Z,17.77
2022-12-09T02:00:44.658Z,18.24
2022-12-09T02:01:26.061Z,18.69
2022-12-09T02:02:08.767Z,18.52
2022-12-09T02:02:52.403Z,18.86
2022-12-09T02:03:33.075Z,18.75
2022-12-09T02:04:13.840Z,18.63
2022-12-09T02:04:55.828Z,18.90
2022-12-09T02:05:37.893Z,18.24
2022-12-09T02:06:18.665Z,18.39
2022-12-09T02:07:00.097Z,18.46
2022-12-09T02:07:41.712Z,18.36
2022-12-09T02:08:25.948Z,18.79
2022-12-09T02:09:08.056Z,18.31
2022-12-09T02:09:53.218Z,18.26
2022-12-09T02:10:34.670Z,18.66
2022-12-09T02:11:38.893Z,18.94
2022-12-09T02:12:38.856Z,18.11
2022-12-09T02:13:27.994Z,18.27
2022-12-09T02:14:33.736Z,18.33
2022-12-09T02:15:27.823Z,17.71
2022-12-09T02:16:11.987Z,17.83
2022-12-09T02:17:36.802Z,18.04
2022-12-09T02:18:33.835Z,17.95
2022-12-09T02:19:56.651Z,18.26
2022-12-09T02:20:44.704Z,18.26
2022-12-09T02:21:48.908Z,18.30
2022-12-09T02:22:30.427Z,18.65
2022-12-09T02:23:43.672Z,18.13
2022-12-09T02:24:46.414Z,18.19
2022-12-09T02:25:52.779Z,18.20
2022-12-09T02:26:59.839Z,18.08
2022-12-09T02:28:04.621Z,17.44
2022-12-09T02:29:16.105Z,17.80
2022-12-09T02:30:23.880Z,18.17
2022-12-09T02:31:58.870Z,17.96
2022-12-09T02:33:23.243Z,17.23
2022-12-09T02:34:33.651Z,18.09
2022-12-09T02:35:19.060Z,18.99
2022-12-09T02:36:28.648Z,19.13
2022-12-09T02:37:24.740Z,19.09
2022-12-09T02:38:27.699Z,18.56
2022-12-09T02:39:16.902Z,18.26
2022-12-09T02:40:07.323Z,18.55
2022-12-09T02:41:02.669Z,18.42
2022-12-09T02:41:38.076Z,18.54
2022-12-09T02:42:28.712Z,18.16
2022-12-09T02:43:02.840Z,18.00
2022-12-09T02:43:56.090Z,17.91
2022-12-09T02:44:31.918Z,17.66
2022-12-09T02:45:19.644Z,17.54
2022-12-09T02:45:54.794Z,17.60
2022-12-09T02:46:42.748Z,17.81
2022-12-09T02:47:20.017Z,17.63
2022-12-09T02:48:01.939Z,17.46
2022-12-09T02:48:54.121Z,16.85
2022-12-09T02:49:36.801Z,17.70
2022-12-09T02:50:19.708Z,18.11
2022-12-09T02:51:00.627Z,17.66
2022-12-09T02:51:42.804Z,17.49
2022-12-09T02:52:25.851Z,17.50
2022-12-09T02:53:16.777Z,17.59
2022-12-09T02:54:21.605Z,17.42
2022-12-09T02:55:21.724Z,17.30
2022-12-09T02:56:17.633Z,17.48
2022-12-09T02:57:16.607Z,17.15
2022-12-09T02:58:13.613Z,17.24
2022-12-09T02:58:55.862Z,17.49
2022-12-09T02:59:36.708Z,17.80
2022-12-09T03:00:20.696Z,17.52
2022-12-09T03:01:04.505Z,17.05
2022-12-09T03:02:09.872Z,17.34
2022-12-09T03:02:56.203Z,17.96
2022-12-09T03:03:40.771Z,17.49
2022-12-09T03:04:27.945Z,17.58
2022-12-09T03:05:34.898Z,17.44
2022-12-09T03:06:23.580Z,17.29
2022-12-09T03:07:27.947Z,16.98
2022-12-09T03:08:39.746Z,17.35
2022-12-09T03:09:18.804Z,17.21
2022-12-09T03:10:08.837Z,17.80
2022-12-09T03:11:11.619Z,17.50
2022-12-09T03:11:52.596Z,17.74
2022-12-09T03:12:35.680Z,18.27
2022-12-09T03:13:46.833Z,18.59
2022-12-09T03:14:46.675Z,18.21
2022-12-09T03:15:31.749Z,18.13
2022-12-09T03:16:35.931Z,18.21
2022-12-09T03:17:20.649Z,18.42
2022-12-09T03:18:01.802Z,17.59
2022-12-09T03:18:44.622Z,17.19
2022-12-09T03:19:52.625Z,17.51
2022-12-09T03:20:35.759Z,17.10
2022-12-09T03:21:17.144Z,17.08
2022-12-09T03:22:03.948Z,17.36
2022-12-09T03:22:48.684Z,17.36
2022-12-09T03:23:32.772Z,17.08
2022-12-09T03:24:16.688Z,17.29
2022-12-09T03:25:23.811Z,17.77
2022-12-09T03:26:05.551Z,16.99
2022-12-09T03:26:40.732Z,17.23
2022-12-09T03:27:34.550Z,17.35
2022-12-09T03:28:14.756Z,16.69
2022-12-09T03:29:02.562Z,17.51
2022-12-09T03:29:38.037Z,17.74
2022-12-09T03:30:25.858Z,17.00
2022-12-09T03:31:00.823Z,16.74
2022-12-09T03:31:42.952Z,17.20
2022-12-09T03:32:27.683Z,17.38
2022-12-09T03:33:09.737Z,17.46
2022-12-09T03:33:54.924Z,17.83
2022-12-09T03:34:42.608Z,18.01
2022-12-09T03:35:28.705Z,17.55
2022-12-09T03:36:11.760Z,17.52
2022-12-09T03:37:01.843Z,17.63
2022-12-09T03:37:56.623Z,17.98
2022-12-09T03:38:38.555Z,17.71
2022-12-09T03:39:32.840Z,17.50
2022-12-09T03:40:14.066Z,18.06
2022-12-09T03:41:08.595Z,18.10
2022-12-09T03:41:48.254Z,17.84
2022-12-09T03:42:35.614Z,18.31
2022-12-09T03:43:18.593Z,18.77
2022-12-09T03:44:01.156Z,18.60
2022-12-09T03:44:53.612Z,18.02
2022-12-09T03:45:27.807Z,18.17
2022-12-09T03:46:01.684Z,18.31
2022-12-09T03:46:42.740Z,18.49
2022-12-09T03:47:17.945Z,18.05
2022-12-09T03:47:59.700Z,17.76
2022-12-09T03:48:39.573Z,17.92
2022-12-09T03:49:19.582Z,18.19
2022-12-09T03:49:59.918Z,17.38
2022-12-09T03:50:56.592Z,17.77
2022-12-09T03:52:03.720Z,18.67
2022-12-09T03:52:48.551Z,19.24
2022-12-09T03:53:44.944Z,19.31
2022-12-09T03:54:40.836Z,19.61
2022-12-09T03:55:36.183Z,19.04
2022-12-09T03:56:34.814Z,19.16
2022-12-09T03:57:14.096Z,19.80
2022-12-09T03:57:56.748Z,21.25
2022-12-09T03:58:39.850Z,21.39
2022-12-09T03:59:25.675Z,21.11
2022-12-09T04:00:02.228Z,20.02
2022-12-09T04:00:52.037Z,19.54
2022-12-09T04:01:27.969Z,19.29
2022-12-09T04:02:15.830Z,19.16
2022-12-09T04:02:50.801Z,18.50
2022-12-09T04:03:37.849Z,18.44
2022-12-09T04:04:12.994Z,18.46
2022-12-09T04:04:53.561Z,19.17
2022-12-09T04:05:27.835Z,18.86
2022-12-09T04:06:02.387Z,18.50
2022-12-09T04:06:43.607Z,18.24
2022-12-09T04:07:17.616Z,18.73
2022-12-09T04:07:51.761Z,19.19
2022-12-09T04:08:33.012Z,19.76
2022-12-09T04:09:07.728Z,19.44
2022-12-09T04:09:42.103Z,18.29
2022-12-09T04:10:23.785Z,17.89
2022-12-09T04:10:57.553Z,17.98
2022-12-09T04:11:32.809Z,18.25
2022-12-09T04:12:13.550Z,20.02
2022-12-09T04:12:47.606Z,19.99
2022-12-09T04:13:21.582Z,19.81
2022-12-09T04:14:01.812Z,20.39
2022-12-09T04:14:35.792Z,22.50
2022-12-09T04:15:10.530Z,21.69
2022-12-09T04:15:50.762Z,21.31
2022-12-09T04:16:24.673Z,20.61
2022-12-09T04:16:58.250Z,19.14
2022-12-09T04:17:38.633Z,18.76
2022-12-09T04:18:12.947Z,18.35
2022-12-09T04:18:47.520Z,17.91
2022-12-09T04:19:28.900Z,17.99
2022-12-09T04:20:02.629Z,17.77
2022-12-09T04:20:36.464Z,18.09
2022-12-09T04:21:19.544Z,19.56
2022-12-09T04:21:53.791Z,21.40
2022-12-09T04:22:27.545Z,21.86
2022-12-09T04:23:08.731Z,24.60
2022-12-09T04:23:43.558Z,26.48
2022-12-09T04:24:17.376Z,24.58
2022-12-09T04:24:57.518Z,20.94
2022-12-09T04:25:31.572Z,19.49
2022-12-09T04:26:06.531Z,18.80
2022-12-09T04:26:46.831Z,19.29
2022-12-09T04:27:20.633Z,19.36
2022-12-09T04:27:55.297Z,19.19
2022-12-09T04:28:36.643Z,18.95
2022-12-09T04:29:10.663Z,19.66
2022-12-09T04:29:45.015Z,19.86
2022-12-09T04:30:24.758Z,20.54
2022-12-09T04:30:58.818Z,20.65
2022-12-09T04:31:32.912Z,20.52
2022-12-09T04:32:13.596Z,21.69
2022-12-09T04:32:47.670Z,21.41
2022-12-09T04:33:21.703Z,19.83
2022-12-09T04:34:06.727Z,19.56
2022-12-09T04:34:42.537Z,19.69
2022-12-09T04:35:16.491Z,19.52
2022-12-09T04:35:56.586Z,19.44
2022-12-09T04:36:30.831Z,19.33
2022-12-09T04:37:05.201Z,19.34
2022-12-09T04:37:46.763Z,19.19
2022-12-09T04:38:20.816Z,19.26
2022-12-09T04:38:54.821Z,19.61
2022-12-09T04:39:34.489Z,19.26
2022-12-09T04:40:09.204Z,20.13
2022-12-09T04:40:43.475Z,19.64
2022-12-09T04:41:23.543Z,19.69
2022-12-09T04:41:57.528Z,20.49
2022-12-09T04:42:32.016Z,20.21
2022-12-09T04:43:12.776Z,20.10
2022-12-09T04:43:48.965Z,20.27
2022-12-09T04:44:23.867Z,20.52
2022-12-09T04:45:03.492Z,20.66
2022-12-09T04:45:37.861Z,20.90
2022-12-09T04:46:16.123Z,20.73
2022-12-09T04:46:57.809Z,20.91
2022-12-09T04:47:31.632Z,22.09
2022-12-09T04:48:05.432Z,22.40
2022-12-09T04:48:45.774Z,21.93
2022-12-09T04:49:19.851Z,21.70
2022-12-09T04:50:00.607Z,21.66
2022-12-09T04:50:40.489Z,21.44
2022-12-09T04:51:17.084Z,22.46
2022-12-09T04:51:51.628Z,23.02
2022-12-09T04:52:31.817Z,22.71
2022-12-09T04:53:05.822Z,23.04
2022-12-09T04:53:40.810Z,23.42
2022-12-09T04:54:21.734Z,27.04
2022-12-09T04:54:56.596Z,36.44
2022-12-09T04:55:30.218Z,39.56
2022-12-09T04:56:25.592Z,34.81
2022-12-09T04:56:59.705Z,31.33
2022-12-09T04:57:33.456Z,32.59
2022-12-09T04:58:14.742Z,32.72
2022-12-09T04:58:49.941Z,33.89
2022-12-09T04:59:30.874Z,33.88
2022-12-09T05:00:12.816Z,32.69
2022-12-09T05:00:53.799Z,31.81
2022-12-09T05:01:34.856Z,30.60
2022-12-09T05:02:15.661Z,29.95
2022-12-09T05:02:55.626Z,29.55
2022-12-09T05:03:36.868Z,29.44
2022-12-09T05:04:18.889Z,29.51
2022-12-09T05:04:59.780Z,30.20
2022-12-09T05:05:40.008Z,30.83
2022-12-09T05:06:21.543Z,30.71
2022-12-09T05:07:01.589Z,31.27
2022-12-09T05:07:42.610Z,30.70
2022-12-09T05:08:31.062Z,30.17
2022-12-09T05:09:18.928Z,30.74
2022-12-09T05:10:14.313Z,30.66
2022-12-09T05:11:08.588Z,30.10
2022-12-09T05:12:02.896Z,29.76
2022-12-09T05:12:56.757Z,28.00
2022-12-09T05:13:50.870Z,27.36
2022-12-09T05:14:45.473Z,26.70
2022-12-09T05:15:32.874Z,27.39
2022-12-09T05:16:17.481Z,27.13
2022-12-09T05:17:04.556Z,26.36
2022-12-09T05:17:38.626Z,26.08
2022-12-09T05:18:25.800Z,26.14
2022-12-09T05:18:59.884Z,26.15
2022-12-09T05:19:47.503Z,25.55
2022-12-09T05:20:21.598Z,25.02
2022-12-09T05:21:03.584Z,24.88
2022-12-09T05:21:46.407Z,24.89
2022-12-09T05:22:26.615Z,24.79
2022-12-09T05:23:09.567Z,23.67
2022-12-09T05:23:51.733Z,23.48
2022-12-09T05:24:47.690Z,23.24
2022-12-09T05:25:42.811Z,23.10
2022-12-09T05:26:26.594Z,23.05
2022-12-09T05:27:20.723Z,22.79
2022-12-09T05:28:14.505Z,22.94
2022-12-09T05:29:08.689Z,23.36
2022-12-09T05:30:02.672Z,22.46
2022-12-09T05:30:57.777Z,22.04
2022-12-09T05:31:44.801Z,21.96
2022-12-09T05:32:18.779Z,22.34
2022-12-09T05:33:05.949Z,21.90
2022-12-09T05:33:40.758Z,22.21
2022-12-09T05:34:27.638Z,22.21
2022-12-09T05:35:02.694Z,22.13
2022-12-09T05:35:53.569Z,21.58
2022-12-09T05:36:31.726Z,21.64
2022-12-09T05:37:12.905Z,22.11
2022-12-09T05:37:53.792Z,22.20
2022-12-09T05:38:34.506Z,22.19
2022-12-09T05:39:15.847Z,21.56
2022-12-09T05:39:55.875Z,21.85
2022-12-09T05:40:36.590Z,21.60
2022-12-09T05:41:17.785Z,21.16
2022-12-09T05:41:58.799Z,20.35
2022-12-09T05:42:41.626Z,20.67
2022-12-09T05:43:23.823Z,21.06
2022-12-09T05:44:04.626Z,20.59
2022-12-09T05:44:45.556Z,20.73
2022-12-09T05:45:25.816Z,20.38
2022-12-09T05:46:08.806Z,20.08
2022-12-09T05:46:50.622Z,20.36
2022-12-09T05:47:30.681Z,19.94
2022-12-09T05:48:11.748Z,19.73
2022-12-09T05:48:52.579Z,19.99
2022-12-09T05:49:32.984Z,20.31
2022-12-09T05:50:15.154Z,19.81
2022-12-09T05:51:12.508Z,19.60
2022-12-09T05:51:54.320Z,20.10
2022-12-09T05:52:35.753Z,20.36
2022-12-09T05:53:23.661Z,20.65
2022-12-09T05:54:19.495Z,20.02
2022-12-09T05:55:13.538Z,20.10
2022-12-09T05:56:07.588Z,20.41
2022-12-09T05:57:03.776Z,21.02
2022-12-09T05:57:58.577Z,21.61
2022-12-09T05:58:45.656Z,20.79
2022-12-09T05:59:19.538Z,21.58
2022-12-09T06:00:07.199Z,21.76
2022-12-09T06:00:41.855Z,21.77
2022-12-09T06:01:29.591Z,22.26
2022-12-09T06:02:09.801Z,22.89
2022-12-09T06:02:57.730Z,23.11
2022-12-09T06:03:31.662Z,23.73
2022-12-09T06:04:12.815Z,24.14
2022-12-09T06:04:55.611Z,23.81
2022-12-09T06:05:36.630Z,23.63
2022-12-09T06:06:20.777Z,23.40
2022-12-09T06:07:02.846Z,23.94
2022-12-09T06:07:44.019Z,23.35
2022-12-09T06:08:24.673Z,23.40
2022-12-09T06:09:11.579Z,23.51
2022-12-09T06:09:53.528Z,23.27
2022-12-09T06:10:34.882Z,22.81
2022-12-09T06:11:25.840Z,22.74
2022-12-09T06:12:06.668Z,22.79
2022-12-09T06:12:47.815Z,23.25
2022-12-09T06:13:28.631Z,23.89
2022-12-09T06:14:09.519Z,23.30
2022-12-09T06:14:49.887Z,22.20
2022-12-09T06:15:33.677Z,22.64
2022-12-09T06:16:15.622Z,23.02
2022-12-09T06:16:57.496Z,23.09
2022-12-09T06:17:38.061Z,22.66
2022-12-09T06:18:18.658Z,22.98
2022-12-09T06:18:58.701Z,23.74
2022-12-09T06:19:39.864Z,24.58
2022-12-09T06:20:20.593Z,24.25
2022-12-09T06:21:00.440Z,23.61
2022-12-09T06:21:41.645Z,24.00
2022-12-09T06:22:21.848Z,23.79
2022-12-09T06:23:03.734Z,23.65
2022-12-09T06:23:47.632Z,23.40
2022-12-09T06:24:27.591Z,23.52
2022-12-09T06:25:07.559Z,23.71
2022-12-09T06:25:50.818Z,24.23
2022-12-09T06:26:35.594Z,23.95
2022-12-09T06:27:15.672Z,23.34
2022-12-09T06:27:56.771Z,23.05
2022-12-09T06:28:37.769Z,22.76
2022-12-09T06:29:17.498Z,23.34
2022-12-09T06:29:58.477Z,24.52
2022-12-09T06:30:38.386Z,25.08
2022-12-09T06:31:18.899Z,26.92
2022-12-09T06:32:00.526Z,27.90
2022-12-09T06:32:41.641Z,27.36
2022-12-09T06:33:52.364Z,27.81
2022-12-09T06:34:21.593Z,28.01
2022-12-09T06:35:02.908Z,27.39
2022-12-09T06:35:43.947Z,26.95
2022-12-09T06:36:25.922Z,26.75
2022-12-09T06:37:13.760Z,27.15
2022-12-09T06:38:07.509Z,27.15
2022-12-09T06:39:09.269Z,26.54
2022-12-09T06:40:03.384Z,26.52
2022-12-09T06:40:58.410Z,26.80
2022-12-09T06:41:56.589Z,27.34
2022-12-09T06:42:37.631Z,28.61
2022-12-09T06:43:20.028Z,28.33
2022-12-09T06:44:04.769Z,28.10
2022-12-09T06:44:45.475Z,28.88
2022-12-09T06:45:27.613Z,30.92
2022-12-09T06:46:08.858Z,32.79
2022-12-09T06:46:48.727Z,33.71
2022-12-09T06:47:29.765Z,33.15
2022-12-09T06:48:11.681Z,33.13
2022-12-09T06:48:53.900Z,33.14
2022-12-09T06:49:35.548Z,33.16
2022-12-09T06:50:17.687Z,33.78
2022-12-09T06:50:58.674Z,33.45
2022-12-09T06:51:41.059Z,33.38
2022-12-09T06:52:22.843Z,33.71
2022-12-09T06:53:04.870Z,33.66
2022-12-09T06:53:46.764Z,34.21
2022-12-09T06:54:27.834Z,34.10
2022-12-09T06:55:08.958Z,34.94
2022-12-09T06:55:49.647Z,35.64
2022-12-09T06:56:31.392Z,35.22
2022-12-09T06:57:13.851Z,35.26
2022-12-09T06:57:55.719Z,34.79
2022-12-09T06:58:36.724Z,34.72
2022-12-09T06:59:17.586Z,34.71
2022-12-09T06:59:58.822Z,35.64
2022-12-09T07:00:39.773Z,35.41
2022-12-09T07:01:26.861Z,34.84
2022-12-09T07:02:08.920Z,35.26
2022-12-09T07:02:49.791Z,35.20
2022-12-09T07:03:30.775Z,35.88
2022-12-09T07:04:12.624Z,35.55
2022-12-09T07:04:53.649Z,34.94
2022-12-09T07:05:34.577Z,35.92
2022-12-09T07:06:32.767Z,37.11
2022-12-09T07:07:15.101Z,37.89
2022-12-09T07:07:59.654Z,38.29
2022-12-09T07:08:41.781Z,37.89
2022-12-09T07:09:28.694Z,36.99
2022-12-09T07:10:13.868Z,36.99
2022-12-09T07:10:51.745Z,36.60
2022-12-09T07:11:44.538Z,37.59
2022-12-09T07:12:18.560Z,39.05
2022-12-09T07:13:05.457Z,38.44
2022-12-09T07:13:39.448Z,38.66
2022-12-09T07:14:27.527Z,38.36
2022-12-09T07:15:01.956Z,36.80
2022-12-09T07:15:43.437Z,36.46
2022-12-09T07:16:23.883Z,36.19
2022-12-09T07:17:04.645Z,35.97
2022-12-09T07:17:45.508Z,36.34
2022-12-09T07:18:25.357Z,36.44
2022-12-09T07:19:06.469Z,36.64
2022-12-09T07:19:47.442Z,37.94
2022-12-09T07:20:28.572Z,38.21
2022-12-09T07:21:22.747Z,42.53
2022-12-09T07:22:03.694Z,47.56
2022-12-09T07:22:44.363Z,49.28
2022-12-09T07:23:24.809Z,51.50
2022-12-09T07:24:09.471Z,51.14
2022-12-09T07:24:51.657Z,50.03
2022-12-09T07:25:33.294Z,48.40
2022-12-09T07:26:15.740Z,45.70
2022-12-09T07:26:59.404Z,42.78
2022-12-09T07:27:43.627Z,38.11
2022-12-09T07:28:24.435Z,36.56
2022-12-09T07:29:20.759Z,37.61
2022-12-09T07:30:16.429Z,41.39
2022-12-09T07:31:10.493Z,43.70
2022-12-09T07:32:06.446Z,47.99
2022-12-09T07:33:00.731Z,49.42
2022-12-09T07:33:55.546Z,48.94
2022-12-09T07:34:51.721Z,49.83
2022-12-09T07:35:46.654Z,47.40
2022-12-09T07:36:44.729Z,48.20
2022-12-09T07:37:31.699Z,49.44
2022-12-09T07:38:05.602Z,52.58
2022-12-09T07:38:53.330Z,54.20
2022-12-09T07:39:27.573Z,55.34
2022-12-09T07:40:15.582Z,57.09
2022-12-09T07:40:50.969Z,55.69
2022-12-09T07:41:39.448Z,55.94
2022-12-09T07:42:13.827Z,54.20
2022-12-09T07:42:59.308Z,52.46
2022-12-09T07:43:42.716Z,47.41
2022-12-09T07:44:23.499Z,45.66
2022-12-09T07:45:04.574Z,43.17
2022-12-09T07:45:45.636Z,42.20
2022-12-09T07:46:29.146Z,43.33
2022-12-09T07:47:10.882Z,43.13
2022-12-09T07:47:51.623Z,41.44
2022-12-09T07:48:33.543Z,40.95
2022-12-09T07:49:14.463Z,41.20
2022-12-09T07:49:56.809Z,40.61
2022-12-09T07:50:39.565Z,39.03
2022-12-09T07:51:20.448Z,37.01
2022-12-09T07:52:00.777Z,37.24
2022-12-09T07:52:41.553Z,36.34
2022-12-09T07:53:21.673Z,35.74
2022-12-09T07:54:02.682Z,34.79
2022-12-09T07:54:43.681Z,32.01
2022-12-09T07:55:24.626Z,32.04
2022-12-09T07:56:11.932Z,32.36
2022-12-09T07:56:53.611Z,32.16
2022-12-09T07:57:35.324Z,33.10
2022-12-09T07:58:17.577Z,32.20
2022-12-09T07:58:59.582Z,32.26
2022-12-09T07:59:40.367Z,33.06
2022-12-09T08:00:21.480Z,33.17
2022-12-09T08:01:02.339Z,32.99
2022-12-09T08:01:43.833Z,33.13
2022-12-09T08:02:25.732Z,33.66
2022-12-09T08:03:06.538Z,34.06
2022-12-09T08:03:48.484Z,33.59
2022-12-09T08:04:30.817Z,32.65
2022-12-09T08:05:13.019Z,31.99
2022-12-09T08:06:00.687Z,31.95
2022-12-09T08:06:44.684Z,32.38
2022-12-09T08:07:26.545Z,33.26
2022-12-09T08:08:06.564Z,34.26
2022-12-09T08:08:48.264Z,34.31
2022-12-09T08:09:28.537Z,34.00
2022-12-09T08:10:10.741Z,34.26
2022-12-09T08:10:53.389Z,33.30
2022-12-09T08:11:37.867Z,33.44
2022-12-09T08:12:19.575Z,33.41
2022-12-09T08:13:00.620Z,32.14
2022-12-09T08:13:41.725Z,31.58
2022-12-09T08:14:22.730Z,31.79
2022-12-09T08:15:02.383Z,31.16
2022-12-09T08:15:42.856Z,30.39
2022-12-09T08:16:26.640Z,30.41
2022-12-09T08:17:08.810Z,33.05
2022-12-09T08:17:50.349Z,34.20
2022-12-09T08:18:32.644Z,33.63
2022-12-09T08:19:12.669Z,32.99
2022-12-09T08:19:54.053Z,32.80
2022-12-09T08:20:35.542Z,33.09
2022-12-09T08:21:21.232Z,32.28
2022-12-09T08:22:02.434Z,31.38
2022-12-09T08:22:42.666Z,31.16
2022-12-09T08:23:24.312Z,28.81
2022-12-09T08:24:08.064Z,27.98
2022-12-09T08:24:48.792Z,28.26
2022-12-09T08:25:29.476Z,28.08
2022-12-09T08:26:11.389Z,28.55
2022-12-09T08:26:52.799Z,28.49
2022-12-09T08:27:34.547Z,28.81
2022-12-09T08:28:15.701Z,28.81
2022-12-09T08:28:56.474Z,28.75
2022-12-09T08:29:38.760Z,29.02
2022-12-09T08:30:20.483Z,29.17
2022-12-09T08:31:02.951Z,29.40
2022-12-09T08:31:44.614Z,29.75
2022-12-09T08:32:25.700Z,29.69
2022-12-09T08:33:07.464Z,29.81
2022-12-09T08:33:48.930Z,30.33
2022-12-09T08:34:29.295Z,29.63
2022-12-09T08:35:15.199Z,29.77
2022-12-09T08:35:55.374Z,31.81
2022-12-09T08:36:37.193Z,33.61
2022-12-09T08:37:18.276Z,33.34
2022-12-09T08:37:58.330Z,33.01
2022-12-09T08:38:39.459Z,32.75
2022-12-09T08:39:20.304Z,31.75
2022-12-09T08:40:01.522Z,32.20
2022-12-09T08:40:43.745Z,31.70
2022-12-09T08:41:44.680Z,32.17
2022-12-09T08:42:25.547Z,31.54
2022-12-09T08:43:05.676Z,30.73
2022-12-09T08:43:54.436Z,30.56
2022-12-09T08:44:48.353Z,30.08
2022-12-09T08:45:43.527Z,30.50
2022-12-09T08:46:37.440Z,31.15
2022-12-09T08:47:31.423Z,32.14
2022-12-09T08:48:26.510Z,31.95
2022-12-09T08:49:14.496Z,30.67
2022-12-09T08:49:48.416Z,29.42
2022-12-09T08:50:38.328Z,32.17
2022-12-09T08:51:14.593Z,43.15
2022-12-09T08:52:01.878Z,57.00
2022-12-09T08:52:40.281Z,53.44
2022-12-09T08:53:28.349Z,43.80
2022-12-09T08:54:03.363Z,45.50
2022-12-09T08:54:44.372Z,45.67
2022-12-09T08:55:24.687Z,44.66
2022-12-09T08:56:05.231Z,44.55
2022-12-09T08:56:46.198Z,43.89
2022-12-09T08:57:33.789Z,41.74
2022-12-09T08:58:14.308Z,39.00
2022-12-09T08:58:55.608Z,36.76
2022-12-09T08:59:41.875Z,33.81
2022-12-09T09:00:26.255Z,32.64
2022-12-09T09:01:07.555Z,33.95
2022-12-09T09:01:48.468Z,34.25
2022-12-09T09:02:30.897Z,33.55
2022-12-09T09:03:12.468Z,34.17
2022-12-09T09:03:54.724Z,33.35
2022-12-09T09:04:35.871Z,32.83
2022-12-09T09:05:16.567Z,32.80
2022-12-09T09:05:56.515Z,31.79
2022-12-09T09:06:37.426Z,30.51
2022-12-09T09:07:18.504Z,29.56
2022-12-09T09:07:59.382Z,29.99
2022-12-09T09:08:40.299Z,30.88
2022-12-09T09:09:24.532Z,30.80
2022-12-09T09:10:08.533Z,31.75
2022-12-09T09:10:49.327Z,33.26
2022-12-09T09:11:30.770Z,33.08
2022-12-09T09:12:12.748Z,32.29
2022-12-09T09:12:54.293Z,33.41
2022-12-09T09:13:34.722Z,34.11
2022-12-09T09:14:18.390Z,33.72
2022-12-09T09:14:58.565Z,34.44
2022-12-09T09:15:38.332Z,33.85
2022-12-09T09:16:29.816Z,33.76
2022-12-09T09:17:11.285Z,32.96
2022-12-09T09:17:54.136Z,33.35
2022-12-09T09:18:34.334Z,32.51
2022-12-09T09:19:15.806Z,31.98
2022-12-09T09:19:56.702Z,32.01
2022-12-09T09:20:37.745Z,31.98
2022-12-09T09:21:21.697Z,31.63
2022-12-09T09:22:02.731Z,31.84
2022-12-09T09:22:43.693Z,32.50